This is the latest recevied weather packets stored in our database for station/object SQ9MHX-13. If no packets are shown the sender has not sent any weather packets the latest 1 day(s).
| Time | Temp. | Humidity | Pressure | Rain* | Wind** | Luminosity | Snow |
|---|---|---|---|---|---|---|---|
| 1778039341 | 12.78° C | 58% | 958.1 hPa | - | 0 m/s | - | - |
| 1778039043 | 13.89° C | 59% | 958 hPa | - | 0 m/s | - | - |
| 1778038147 | 12.78° C | 58% | 958.8 hPa | - | 0 m/s | - | - |
| 1778037849 | 12.78° C | 59% | 958.8 hPa | - | 0 m/s | - | - |
| 1778037550 | 12.78° C | 60% | 958.9 hPa | - | 0 m/s | - | - |
| 1778036953 | 12.78° C | 58% | 958.7 hPa | - | 0 m/s | - | - |
| 1778036655 | 12.78° C | 57% | 958.6 hPa | - | 0 m/s | - | - |
| 1778036356 | 12.78° C | 56% | 958.3 hPa | - | 0 m/s | - | - |
| 1778035759 | 12.78° C | 55% | 958.1 hPa | - | 0 m/s | - | - |
| 1778035460 | 12.78° C | 55% | 958.3 hPa | - | 0 m/s | - | - |
| 1778035162 | 12.78° C | 56% | 958.6 hPa | - | 0 m/s | - | - |
| 1778034869 | 12.78° C | 57% | 958.8 hPa | - | 0 m/s | - | - |
| 1778034565 | 12.78° C | 58% | 959 hPa | - | 0 m/s | - | - |
| 1778034266 | 12.78° C | 58% | 959.2 hPa | - | 0 m/s | - | - |
| 1778033975 | 12.78° C | 59% | 959.1 hPa | - | 0 m/s | - | - |
| 1778033669 | 12.78° C | 58% | 958.7 hPa | - | 0 m/s | - | - |
| 1778033371 | 12.78° C | 54% | 958.1 hPa | - | 0 m/s | - | - |
| 1778033078 | 13.89° C | 52% | 957.6 hPa | - | 0 m/s | - | - |
| 1778032774 | 13.89° C | 51% | 957.6 hPa | - | 0 m/s | - | - |
| 1778032475 | 13.89° C | 52% | 957.9 hPa | - | 0 m/s | - | - |
| 1778032176 | 12.78° C | 53% | 958.2 hPa | - | 0 m/s | - | - |
| 1778031886 | 12.78° C | 53% | 958.2 hPa | - | 0 m/s | - | - |
| 1778031579 | 12.78° C | 53% | 958.4 hPa | - | 0 m/s | - | - |
| 1778030982 | 12.78° C | 55% | 958.7 hPa | - | 0 m/s | - | - |
| 1778030690 | 12.78° C | 56% | 958.3 hPa | - | 0 m/s | - | - |
* Rain since midnight (hover to see other rain measurements)
** Current wind speed in m/s (hover to see current wind gust speed)